createdAt,value
2023-04-28T00:00:43.456Z,24.80
2023-04-28T00:03:14.625Z,24.77
2023-04-28T00:05:42.488Z,24.79
2023-04-28T00:08:10.353Z,24.78
2023-04-28T00:10:45.838Z,24.79
2023-04-28T00:13:16.267Z,24.79
2023-04-28T00:15:44.876Z,24.78
2023-04-28T00:18:18.506Z,24.79
2023-04-28T00:20:49.638Z,24.79
2023-04-28T00:23:20.312Z,24.79
2023-04-28T00:25:57.681Z,24.76
2023-04-28T00:28:34.697Z,24.77
2023-04-28T00:31:14.760Z,24.78
2023-04-28T00:33:45.594Z,24.76
2023-04-28T00:36:13.608Z,24.75
2023-04-28T00:38:41.406Z,24.75
2023-04-28T00:41:18.344Z,24.74
2023-04-28T00:43:49.454Z,24.73
2023-04-28T00:46:29.617Z,24.72
2023-04-28T00:49:00.660Z,24.72
2023-04-28T00:51:33.802Z,24.73
2023-04-28T00:54:04.235Z,24.70
2023-04-28T00:56:36.792Z,24.71
2023-04-28T00:59:09.689Z,24.70
2023-04-28T01:01:38.936Z,24.67
2023-04-28T01:04:12.242Z,24.70
2023-04-28T01:06:48.510Z,24.71
2023-04-28T01:09:19.615Z,24.70
2023-04-28T01:11:47.548Z,24.70
2023-04-28T01:14:38.846Z,24.69
2023-04-28T01:17:08.371Z,24.68
2023-04-28T01:19:36.975Z,24.70
2023-04-28T01:22:16.988Z,24.71
2023-04-28T01:24:48.098Z,24.71
2023-04-28T01:27:16.659Z,24.69
2023-04-28T01:29:47.829Z,24.67
2023-04-28T01:32:18.219Z,24.66
2023-04-28T01:34:46.178Z,24.66
2023-04-28T01:37:16.337Z,24.66
2023-04-28T01:39:46.290Z,24.63
2023-04-28T01:42:13.777Z,24.64
2023-04-28T01:44:42.950Z,24.61
2023-04-28T01:47:17.909Z,24.61
2023-04-28T01:49:50.066Z,24.63
2023-04-28T01:52:24.298Z,24.62
2023-04-28T01:54:55.181Z,24.60
2023-04-28T01:57:26.109Z,24.58
2023-04-28T02:00:01.482Z,24.61
2023-04-28T02:02:37.034Z,24.58
2023-04-28T02:05:06.310Z,24.58
2023-04-28T02:07:35.097Z,24.59
2023-04-28T02:10:06.824Z,24.59
2023-04-28T02:12:38.093Z,24.60
2023-04-28T02:15:09.282Z,24.61
2023-04-28T02:17:45.190Z,24.62
2023-04-28T02:20:18.362Z,24.58
2023-04-28T02:22:50.495Z,24.59
2023-04-28T02:25:23.424Z,24.58
2023-04-28T02:27:56.566Z,24.58
2023-04-28T02:30:29.819Z,24.58
2023-04-28T02:32:59.569Z,24.55
2023-04-28T02:35:28.335Z,24.56
2023-04-28T02:37:59.966Z,24.56
2023-04-28T02:40:27.588Z,24.56
2023-04-28T02:43:04.163Z,24.56
2023-04-28T02:45:35.205Z,24.57
2023-04-28T02:48:04.663Z,24.53
2023-04-28T02:50:32.549Z,24.52
2023-04-28T02:53:03.146Z,24.53
2023-04-28T02:55:34.205Z,24.50
2023-04-28T02:58:10.099Z,24.50
2023-04-28T03:00:41.455Z,24.49
2023-04-28T03:03:16.058Z,24.46
2023-04-28T03:05:49.664Z,24.48
2023-04-28T03:08:22.855Z,24.48
2023-04-28T03:10:54.585Z,24.47
2023-04-28T03:13:25.798Z,24.49
2023-04-28T03:15:56.505Z,24.48
2023-04-28T03:18:28.548Z,24.48
2023-04-28T03:20:59.819Z,24.47
2023-04-28T03:23:33.296Z,24.44
2023-04-28T03:26:03.877Z,24.43
2023-04-28T03:28:35.239Z,24.43
2023-04-28T03:31:03.319Z,24.41
2023-04-28T03:33:31.589Z,24.44
2023-04-28T03:36:07.105Z,24.43
2023-04-28T03:38:39.980Z,24.44
2023-04-28T03:41:08.020Z,24.42
2023-04-28T03:43:57.214Z,24.42
2023-04-28T03:46:34.733Z,24.43
2023-04-28T03:49:05.450Z,24.43
2023-04-28T03:51:33.193Z,24.42
2023-04-28T03:54:07.385Z,24.40
2023-04-28T03:56:39.470Z,24.41
2023-04-28T03:59:12.082Z,24.41
2023-04-28T04:01:49.930Z,24.39
2023-04-28T04:04:23.337Z,24.41
2023-04-28T04:06:55.394Z,24.40
2023-04-28T04:09:23.310Z,24.40
2023-04-28T04:11:53.829Z,24.38
2023-04-28T04:14:30.906Z,24.37
2023-04-28T04:17:02.188Z,24.40
2023-04-28T04:19:32.806Z,24.40
2023-04-28T04:22:06.649Z,24.36
2023-04-28T04:24:37.485Z,24.39
2023-04-28T04:27:08.788Z,24.37
2023-04-28T04:29:39.837Z,24.40
2023-04-28T04:32:18.895Z,24.41
2023-04-28T04:34:52.732Z,24.40
2023-04-28T04:37:23.218Z,24.37
2023-04-28T04:40:03.558Z,24.35
2023-04-28T04:42:40.707Z,24.35
2023-04-28T04:45:12.783Z,24.32
2023-04-28T04:47:40.970Z,24.31
2023-04-28T04:50:12.315Z,24.33
2023-04-28T04:52:43.837Z,24.32
2023-04-28T04:55:14.298Z,24.32
2023-04-28T04:57:45.849Z,24.35
2023-04-28T05:00:38.308Z,24.32
2023-04-28T05:03:06.672Z,24.33
2023-04-28T05:05:37.691Z,24.30
2023-04-28T05:08:24.336Z,24.29
2023-04-28T05:10:58.739Z,24.30
2023-04-28T05:13:29.197Z,24.29
2023-04-28T05:16:04.550Z,24.32
2023-04-28T05:18:57.370Z,24.30
2023-04-28T05:21:28.650Z,24.29
2023-04-28T05:24:01.773Z,24.30
2023-04-28T05:26:34.351Z,24.33
2023-04-28T05:29:07.391Z,24.36
2023-04-28T05:31:42.994Z,24.38
2023-04-28T05:34:23.767Z,24.38
2023-04-28T05:36:57.451Z,24.36
2023-04-28T05:39:31.110Z,24.35
2023-04-28T05:42:04.557Z,24.33
2023-04-28T05:44:38.973Z,24.30
2023-04-28T05:47:12.289Z,24.31
2023-04-28T05:49:40.071Z,24.33
2023-04-28T05:52:08.187Z,24.30
2023-04-28T05:54:36.928Z,24.33
2023-04-28T05:57:08.269Z,24.42
2023-04-28T05:59:36.182Z,24.42
2023-04-28T06:02:03.908Z,24.47
2023-04-28T06:04:40.124Z,24.58
2023-04-28T06:07:10.677Z,24.64
2023-04-28T06:09:39.344Z,24.82
2023-04-28T06:12:07.413Z,24.97
2023-04-28T06:14:37.763Z,24.89
2023-04-28T06:17:07.289Z,24.90
2023-04-28T06:19:34.819Z,25.02
2023-04-28T06:22:07.587Z,25.19
2023-04-28T06:24:41.858Z,25.32
2023-04-28T06:27:13.045Z,25.52
2023-04-28T06:29:41.068Z,25.85
2023-04-28T06:32:13.971Z,26.14
2023-04-28T06:34:43.025Z,26.13
2023-04-28T06:37:10.960Z,26.22
2023-04-28T06:39:44.962Z,26.44
2023-04-28T06:42:13.750Z,26.98
2023-04-28T06:44:53.265Z,26.60
2023-04-28T06:47:26.549Z,26.54
2023-04-28T06:50:01.805Z,26.35
2023-04-28T06:52:38.611Z,26.23
2023-04-28T06:55:15.266Z,26.03
2023-04-28T06:57:45.742Z,25.88
2023-04-28T07:00:14.180Z,25.80
2023-04-28T07:02:45.062Z,25.80
2023-04-28T07:05:16.772Z,25.67
2023-04-28T07:07:46.409Z,25.66
2023-04-28T07:10:19.319Z,25.64
2023-04-28T07:12:52.433Z,25.46
2023-04-28T07:15:20.532Z,25.38
2023-04-28T07:17:53.441Z,25.52
2023-04-28T07:20:24.429Z,25.44
2023-04-28T07:23:08.032Z,25.34
2023-04-28T07:25:41.684Z,25.27
2023-04-28T07:28:14.577Z,25.29
2023-04-28T07:30:48.024Z,25.17
2023-04-28T07:33:17.905Z,25.24
2023-04-28T07:35:49.616Z,25.22
2023-04-28T07:38:20.672Z,25.13
2023-04-28T07:40:53.738Z,25.17
2023-04-28T07:43:27.639Z,25.07
2023-04-28T07:45:59.231Z,25.07
2023-04-28T07:48:27.470Z,25.07
2023-04-28T07:50:58.320Z,25.05
2023-04-28T07:53:29.181Z,25.13
2023-04-28T07:55:59.789Z,25.10
2023-04-28T07:58:33.290Z,25.09
2023-04-28T08:01:04.881Z,25.08
2023-04-28T08:03:35.384Z,25.07
2023-04-28T08:06:05.958Z,25.03
2023-04-28T08:08:37.032Z,24.98
2023-04-28T08:11:14.353Z,24.98
2023-04-28T08:13:49.765Z,25.13
2023-04-28T08:16:23.653Z,24.98
2023-04-28T08:18:52.737Z,25.02
2023-04-28T08:21:27.133Z,25.30
2023-04-28T08:23:55.320Z,25.57
2023-04-28T08:26:26.264Z,25.98
2023-04-28T08:28:54.195Z,26.06
2023-04-28T08:31:25.436Z,26.07
2023-04-28T08:33:58.373Z,26.18
2023-04-28T08:36:32.679Z,26.16
2023-04-28T08:39:13.038Z,26.07
2023-04-28T08:41:46.943Z,25.97
2023-04-28T08:44:15.606Z,25.90
2023-04-28T08:46:49.114Z,25.83
2023-04-28T08:49:20.752Z,25.91
2023-04-28T08:51:59.668Z,25.94
2023-04-28T08:54:34.342Z,26.14
2023-04-28T08:57:09.741Z,26.50
2023-04-28T08:59:43.626Z,26.73
2023-04-28T09:02:17.307Z,26.77
2023-04-28T09:04:48.621Z,26.97
2023-04-28T09:07:21.280Z,26.90
2023-04-28T09:10:27.754Z,26.88
2023-04-28T09:12:56.906Z,26.92
2023-04-28T09:15:41.052Z,27.00
2023-04-28T09:18:18.318Z,27.06
2023-04-28T09:20:49.160Z,27.16
2023-04-28T09:23:27.994Z,27.39
2023-04-28T09:26:06.733Z,27.75
2023-04-28T09:28:39.678Z,27.87
2023-04-28T09:31:29.139Z,27.80
2023-04-28T09:34:03.251Z,27.81
2023-04-28T09:36:31.074Z,27.72
2023-04-28T09:39:07.806Z,27.71
2023-04-28T09:41:47.519Z,27.54
2023-04-28T09:44:24.473Z,27.56
2023-04-28T09:46:52.482Z,27.56
2023-04-28T09:49:23.490Z,27.59
2023-04-28T09:51:55.786Z,27.34
2023-04-28T09:54:29.159Z,27.54
2023-04-28T09:57:00.177Z,27.53
2023-04-28T09:59:33.399Z,27.50
2023-04-28T10:02:22.509Z,27.34
2023-04-28T10:04:59.396Z,27.25
2023-04-28T10:07:39.394Z,27.35
2023-04-28T10:10:17.622Z,27.44
2023-04-28T10:12:48.977Z,27.40
2023-04-28T10:15:23.480Z,27.55
2023-04-28T10:18:00.298Z,27.56
2023-04-28T10:20:31.095Z,27.75
2023-04-28T10:23:25.839Z,27.78
2023-04-28T10:26:00.428Z,27.85
2023-04-28T10:28:34.948Z,27.95
2023-04-28T10:31:21.282Z,27.99
2023-04-28T10:33:52.615Z,28.04
2023-04-28T10:36:54.737Z,28.20
2023-04-28T10:39:36.294Z,28.48
2023-04-28T10:42:45.069Z,28.41
2023-04-28T10:45:56.420Z,28.40
2023-04-28T10:48:34.336Z,28.34
2023-04-28T10:51:14.249Z,28.23
2023-04-28T10:53:51.319Z,28.20
2023-04-28T10:56:25.606Z,28.01
2023-04-28T10:58:56.374Z,27.81
2023-04-28T11:01:42.606Z,27.74
2023-04-28T11:04:21.977Z,27.55
2023-04-28T11:07:17.672Z,27.48
2023-04-28T11:10:01.470Z,27.42
2023-04-28T11:12:37.140Z,27.38
2023-04-28T11:15:24.454Z,27.42
2023-04-28T11:18:07.750Z,27.43
2023-04-28T11:20:41.281Z,27.40
2023-04-28T11:23:17.293Z,27.38
2023-04-28T11:25:59.753Z,27.37
2023-04-28T11:28:28.216Z,27.31
2023-04-28T11:31:14.836Z,27.31
2023-04-28T11:33:58.856Z,27.29
2023-04-28T11:36:36.309Z,27.33
2023-04-28T11:39:08.409Z,27.26
2023-04-28T11:41:43.989Z,27.10
2023-04-28T11:44:18.610Z,27.08
2023-04-28T11:47:16.535Z,27.19
2023-04-28T11:49:49.961Z,27.24
2023-04-28T11:52:18.583Z,27.25
2023-04-28T11:54:59.267Z,26.40
2023-04-28T11:57:29.525Z,26.36
2023-04-28T12:00:21.880Z,26.35
2023-04-28T12:02:53.290Z,26.36
2023-04-28T12:05:22.559Z,26.67
2023-04-28T12:07:53.591Z,26.71
2023-04-28T12:10:24.351Z,26.45
2023-04-28T12:12:57.562Z,26.19
2023-04-28T12:15:41.419Z,25.91
2023-04-28T12:18:16.957Z,25.87
2023-04-28T12:20:49.875Z,26.01
2023-04-28T12:23:32.504Z,25.93
2023-04-28T12:26:03.216Z,25.69
2023-04-28T12:28:43.748Z,25.40
2023-04-28T12:31:11.895Z,25.40
2023-04-28T12:33:40.857Z,25.74
2023-04-28T12:36:16.802Z,25.90
2023-04-28T12:38:51.436Z,25.58
2023-04-28T12:41:27.360Z,26.02
2023-04-28T12:44:04.463Z,25.61
2023-04-28T12:46:40.734Z,25.27
2023-04-28T12:49:16.787Z,25.28
2023-04-28T12:51:50.471Z,25.35
2023-04-28T12:54:18.692Z,25.14
2023-04-28T12:56:46.961Z,25.26
2023-04-28T12:59:24.001Z,24.51
2023-04-28T13:02:01.003Z,24.60
2023-04-28T13:04:32.834Z,25.11
2023-04-28T13:07:07.400Z,24.84
2023-04-28T13:09:40.317Z,24.34
2023-04-28T13:12:17.614Z,24.75
2023-04-28T13:14:48.465Z,24.44
2023-04-28T13:17:19.562Z,24.25
2023-04-28T13:19:53.012Z,24.34
2023-04-28T13:22:29.240Z,24.70
2023-04-28T13:25:05.890Z,24.73
2023-04-28T13:27:33.873Z,24.95
2023-04-28T13:30:08.950Z,24.82
2023-04-28T13:32:40.742Z,24.82
2023-04-28T13:35:15.152Z,24.56
2023-04-28T13:37:56.544Z,24.61
2023-04-28T13:40:26.829Z,24.36
2023-04-28T13:43:00.486Z,24.80
2023-04-28T13:45:31.721Z,24.78
2023-04-28T13:48:03.521Z,24.98
2023-04-28T13:50:31.815Z,25.06
2023-04-28T13:53:08.592Z,25.12
2023-04-28T13:55:48.840Z,25.24
2023-04-28T13:58:26.383Z,25.09
2023-04-28T14:00:57.808Z,25.00
2023-04-28T14:03:26.825Z,25.09
2023-04-28T14:06:00.579Z,25.21
2023-04-28T14:08:34.102Z,25.14
2023-04-28T14:11:08.257Z,24.90
2023-04-28T14:13:36.740Z,24.89
2023-04-28T14:16:10.880Z,25.03
2023-04-28T14:18:39.708Z,24.95
2023-04-28T14:21:12.294Z,24.85
2023-04-28T14:23:40.560Z,24.93
2023-04-28T14:26:09.174Z,25.11
2023-04-28T14:28:42.936Z,25.16
2023-04-28T14:31:14.115Z,25.37
2023-04-28T14:33:42.803Z,25.14
2023-04-28T14:36:13.581Z,25.01
2023-04-28T14:38:43.934Z,24.90
2023-04-28T14:41:18.706Z,24.98
2023-04-28T14:43:49.958Z,25.13
2023-04-28T14:46:24.270Z,25.50
2023-04-28T14:48:58.661Z,25.49
2023-04-28T14:51:30.152Z,25.55
2023-04-28T14:54:02.360Z,25.67
2023-04-28T14:56:31.611Z,25.77
2023-04-28T14:59:03.813Z,25.84
2023-04-28T15:01:31.483Z,25.88
2023-04-28T15:04:05.129Z,25.66
2023-04-28T15:06:36.219Z,25.98
2023-04-28T15:09:07.180Z,25.92
2023-04-28T15:11:37.433Z,26.22
2023-04-28T15:14:06.586Z,25.98
2023-04-28T15:16:39.469Z,25.71
2023-04-28T15:19:10.215Z,25.60
2023-04-28T15:21:46.762Z,26.00
2023-04-28T15:24:25.190Z,26.89
2023-04-28T15:26:56.620Z,27.36
2023-04-28T15:29:27.842Z,27.39
2023-04-28T15:31:59.887Z,27.51
2023-04-28T15:34:33.611Z,27.41
2023-04-28T15:37:27.202Z,27.16
2023-04-28T15:40:22.144Z,27.20
2023-04-28T15:42:56.500Z,26.95
2023-04-28T15:45:36.025Z,26.60
2023-04-28T15:48:12.235Z,26.52
2023-04-28T15:50:42.887Z,26.52
2023-04-28T15:53:14.221Z,26.28
2023-04-28T15:55:48.065Z,26.66
2023-04-28T15:58:25.311Z,26.97
2023-04-28T16:00:59.777Z,26.82
2023-04-28T16:03:27.886Z,26.91
2023-04-28T16:06:04.496Z,26.77
2023-04-28T16:08:33.284Z,26.81
2023-04-28T16:11:11.954Z,26.71
2023-04-28T16:13:45.947Z,26.29
2023-04-28T16:16:13.651Z,26.10
2023-04-28T16:18:46.392Z,26.15
2023-04-28T16:21:17.619Z,26.37
2023-04-28T16:23:45.673Z,26.45
2023-04-28T16:26:16.425Z,26.22
2023-04-28T16:28:44.454Z,26.19
2023-04-28T16:31:17.613Z,26.02
2023-04-28T16:33:52.965Z,25.86
2023-04-28T16:36:21.709Z,26.13
2023-04-28T16:38:52.470Z,26.14
2023-04-28T16:41:20.207Z,26.27
2023-04-28T16:43:53.305Z,26.36
2023-04-28T16:46:21.133Z,26.40
2023-04-28T16:48:56.844Z,26.39
2023-04-28T16:51:24.391Z,26.39
2023-04-28T16:53:59.822Z,26.35
2023-04-28T16:56:28.389Z,26.34
2023-04-28T16:58:58.664Z,26.35
2023-04-28T17:01:28.490Z,26.34
2023-04-28T17:03:56.777Z,26.36
2023-04-28T17:06:28.011Z,26.36
2023-04-28T17:08:55.440Z,26.30
2023-04-28T17:11:25.026Z,26.32
2023-04-28T17:13:52.323Z,26.34
2023-04-28T17:16:20.161Z,26.37
2023-04-28T17:18:47.590Z,26.35
2023-04-28T17:21:15.813Z,26.32
2023-04-28T17:23:48.364Z,26.34
2023-04-28T17:26:16.959Z,26.30
2023-04-28T17:28:44.654Z,26.31
2023-04-28T17:31:13.452Z,26.26
2023-04-28T17:33:41.002Z,26.34
2023-04-28T17:36:13.939Z,26.37
2023-04-28T17:38:43.928Z,26.37
2023-04-28T17:41:15.190Z,26.36
2023-04-28T17:43:48.214Z,26.32
2023-04-28T17:46:17.198Z,26.34
2023-04-28T17:48:47.038Z,26.31
2023-04-28T17:51:15.498Z,26.34
2023-04-28T17:53:48.639Z,26.27
2023-04-28T17:56:19.655Z,26.29
2023-04-28T17:58:47.717Z,26.28
2023-04-28T18:01:18.591Z,26.29
2023-04-28T18:03:46.280Z,26.27
2023-04-28T18:06:22.292Z,26.30
2023-04-28T18:08:57.035Z,26.30
2023-04-28T18:11:31.826Z,26.29
2023-04-28T18:14:00.309Z,26.30
2023-04-28T18:16:27.841Z,26.34
2023-04-28T18:18:58.260Z,26.34
2023-04-28T18:21:25.883Z,26.29
2023-04-28T18:23:53.588Z,26.27
2023-04-28T18:26:26.554Z,26.27
2023-04-28T18:28:53.845Z,26.30
2023-04-28T18:31:24.528Z,26.34
2023-04-28T18:33:52.286Z,26.30
2023-04-28T18:36:22.120Z,26.33
2023-04-28T18:38:56.134Z,26.26
2023-04-28T18:41:31.781Z,26.16
2023-04-28T18:44:02.736Z,26.23
2023-04-28T18:46:32.687Z,26.20
2023-04-28T18:49:02.539Z,26.18
2023-04-28T18:51:29.890Z,26.17
2023-04-28T18:53:57.306Z,26.17
2023-04-28T18:56:36.045Z,26.15
2023-04-28T18:59:09.541Z,26.19
2023-04-28T19:01:38.065Z,26.15
2023-04-28T19:04:06.550Z,26.17
2023-04-28T19:06:36.231Z,26.16
2023-04-28T19:09:04.943Z,26.17
2023-04-28T19:11:35.728Z,26.18
2023-04-28T19:14:03.247Z,26.18
2023-04-28T19:16:33.846Z,26.20
2023-04-28T19:19:03.682Z,26.20
2023-04-28T19:21:34.538Z,26.15
2023-04-28T19:24:05.242Z,26.13
2023-04-28T19:26:32.825Z,26.11
2023-04-28T19:29:03.428Z,26.14
2023-04-28T19:31:31.263Z,26.16
2023-04-28T19:34:02.532Z,26.13
2023-04-28T19:36:33.195Z,26.10
2023-04-28T19:39:08.385Z,26.11
2023-04-28T19:41:36.706Z,26.07
2023-04-28T19:44:07.167Z,26.05
2023-04-28T19:46:35.965Z,26.08
2023-04-28T19:49:03.666Z,26.09
2023-04-28T19:51:32.552Z,26.11
2023-04-28T19:53:59.862Z,26.12
2023-04-28T19:56:27.944Z,26.07
2023-04-28T19:58:59.154Z,26.11
2023-04-28T20:01:27.003Z,26.09
2023-04-28T20:03:54.888Z,26.11
2023-04-28T20:06:22.503Z,26.09
2023-04-28T20:08:52.224Z,26.03
2023-04-28T20:11:25.675Z,26.10
2023-04-28T20:13:52.950Z,26.04
2023-04-28T20:16:24.848Z,26.05
2023-04-28T20:19:02.888Z,26.06
2023-04-28T20:21:32.791Z,26.08
2023-04-28T20:24:00.178Z,26.07
2023-04-28T20:26:33.247Z,26.03
2023-04-28T20:29:03.961Z,26.03
2023-04-28T20:31:32.058Z,26.05
2023-04-28T20:34:00.662Z,26.03
2023-04-28T20:36:33.675Z,25.96
2023-04-28T20:39:07.663Z,25.96
2023-04-28T20:41:38.927Z,25.99
2023-04-28T20:44:08.773Z,26.01
2023-04-28T20:46:39.887Z,25.98
2023-04-28T20:49:11.047Z,25.98
2023-04-28T20:51:45.444Z,25.98
2023-04-28T20:54:14.517Z,25.98
2023-04-28T20:56:46.193Z,25.95
2023-04-28T20:59:13.720Z,25.95
2023-04-28T21:01:41.310Z,25.98
2023-04-28T21:04:12.570Z,25.94
2023-04-28T21:06:53.604Z,25.92
2023-04-28T21:09:21.341Z,25.92
2023-04-28T21:11:52.785Z,25.97
2023-04-28T21:14:20.390Z,25.96
2023-04-28T21:16:47.973Z,25.98
2023-04-28T21:19:18.556Z,25.95
2023-04-28T21:21:45.985Z,25.89
2023-04-28T21:24:18.078Z,25.89
2023-04-28T21:26:45.513Z,25.87
2023-04-28T21:29:13.556Z,25.93
2023-04-28T21:31:45.845Z,25.92
2023-04-28T21:34:13.457Z,25.93
2023-04-28T21:36:41.117Z,25.90
2023-04-28T21:39:11.211Z,25.91
2023-04-28T21:41:41.396Z,25.94
2023-04-28T21:44:13.514Z,25.90
2023-04-28T21:46:44.011Z,25.89
2023-04-28T21:49:14.490Z,25.90
2023-04-28T21:51:45.823Z,25.90
2023-04-28T21:54:14.431Z,25.86
2023-04-28T21:56:47.160Z,25.85
2023-04-28T21:59:17.987Z,25.86
2023-04-28T22:01:48.487Z,25.88
2023-04-28T22:04:16.838Z,25.88
2023-04-28T22:06:47.739Z,25.85
2023-04-28T22:09:15.408Z,25.90
2023-04-28T22:11:42.782Z,25.88
2023-04-28T22:14:21.590Z,25.86
2023-04-28T22:17:00.084Z,25.78
2023-04-28T22:19:28.115Z,25.86
2023-04-28T22:21:58.415Z,25.82
2023-04-28T22:24:29.176Z,25.86
2023-04-28T22:26:59.729Z,25.83
2023-04-28T22:29:28.609Z,25.86
2023-04-28T22:31:58.832Z,25.87
2023-04-28T22:34:26.551Z,25.86
2023-04-28T22:36:54.265Z,25.83
2023-04-28T22:39:25.184Z,25.85
2023-04-28T22:41:55.922Z,25.79
2023-04-28T22:44:29.279Z,25.88
2023-04-28T22:46:59.488Z,25.85
2023-04-28T22:49:30.584Z,25.87
2023-04-28T22:51:58.675Z,25.82
2023-04-28T22:54:28.658Z,25.75
2023-04-28T22:56:59.245Z,25.70
2023-04-28T22:59:29.752Z,25.67
2023-04-28T23:02:00.320Z,25.63
2023-04-28T23:04:28.113Z,25.60
2023-04-28T23:07:00.962Z,25.57
2023-04-28T23:09:35.946Z,25.53
2023-04-28T23:12:04.213Z,25.47
2023-04-28T23:14:34.882Z,25.45
2023-04-28T23:17:05.094Z,25.44
2023-04-28T23:19:39.266Z,25.41
2023-04-28T23:22:10.102Z,25.37
2023-04-28T23:24:40.134Z,25.32
2023-04-28T23:27:09.785Z,25.31
2023-04-28T23:29:39.697Z,25.27
2023-04-28T23:32:07.450Z,25.28
2023-04-28T23:34:38.295Z,25.29
2023-04-28T23:37:12.872Z,25.28
2023-04-28T23:39:42.596Z,25.24
2023-04-28T23:42:13.265Z,25.22
2023-04-28T23:44:45.923Z,25.20
2023-04-28T23:47:16.118Z,25.20
2023-04-28T23:49:45.802Z,25.17
2023-04-28T23:52:13.356Z,25.19
2023-04-28T23:54:40.691Z,25.19
2023-04-28T23:57:10.811Z,25.16
2023-04-28T23:59:45.954Z,25.16
